Weather reports worldwide

Advertisment
S. Valentino Alla Muta, Italy (16008): temperature & dewpoint: 18.04.2018 06:00:00 - 24.04.2018 06:00:00 (CEST)S. Valentino Alla Muta, Italy (16008): wind speed: 18.04.2018 06:00:00 - 24.04.2018 06:00:00 (CEST)S. Valentino Alla Muta, Italy (16008): wind direction: 18.04.2018 06:00:00 - 24.04.2018 06:00:00 (CEST)S. Valentino Alla Muta, Italy (16008): visibility: 18.04.2018 06:00:00 - 24.04.2018 06:00:00 (CEST)
Date & Time tt [°C] td [°C] ff [km/h] ff [kn] dd vv [km]
24.04.2018 06:00:00 8,8 8,8 11 6 N 10
24.04.2018 05:00:00 9,0 9,0 9 5 N 10
24.04.2018 04:00:00 9,4 9,0 8 4 N 10
24.04.2018 03:00:00 - - - - - -
24.04.2018 02:00:00 10,4 8,2 8 4 N 10
24.04.2018 01:00:00 11,4 7,5 8 4 N 10
24.04.2018 00:00:00 12,0 6,9 13 7 NE 10
23.04.2018 23:00:00 11,4 4,8 9 5 NE 12
23.04.2018 22:00:00 12,0 4,0 8 4 NNE 15
23.04.2018 21:00:00 13,6 2,8 4 2 NNE 20
23.04.2018 20:00:00 16,0 2,8 5 3 NE 20
23.04.2018 19:00:00 17,4 2,2 4 2 ESE 20
23.04.2018 18:00:00 18,4 1,0 11 6 WNW 20
23.04.2018 17:00:00 19,0 -0,4 9 5 WNW 20
23.04.2018 16:00:00 19,2 1,7 5 3 SW 20
23.04.2018 15:00:00 19,6 2,0 8 4 SW 20
23.04.2018 14:00:00 19,6 3,3 8 4 NNW 20
23.04.2018 13:00:00 19,0 4,4 5 3 N 20
23.04.2018 12:00:00 14,6 8,1 8 4 NNE 20
23.04.2018 11:00:00 11,2 7,5 9 5 N 20
23.04.2018 10:00:00 8,8 7,2 11 6 N 20
23.04.2018 09:00:00 6,6 5,2 8 4 N 20
23.04.2018 08:00:00 5,8 5,4 9 5 N 20
23.04.2018 07:00:00 5,4 4,4 9 5 N 20
23.04.2018 06:00:00 5,6 3,8 9 5 N 14
23.04.2018 05:00:00 6,0 4,0 8 4 NNE 12
23.04.2018 04:00:00 6,0 3,5 8 4 NNE 12
23.04.2018 03:00:00 6,4 3,7 13 7 NNE 12
23.04.2018 02:00:00 6,8 3,2 11 6 NNE 12
23.04.2018 01:00:00 8,0 3,3 9 5 NNE 12
23.04.2018 00:00:00 8,6 2,6 5 3 N 12
22.04.2018 23:00:00 9,6 2,9 9 5 NNE 12
22.04.2018 22:00:00 10,4 1,0 8 4 N 12
22.04.2018 21:00:00 12,6 1,0 0 0 N 14
22.04.2018 20:00:00 14,6 -1,1 0 0 N 20
22.04.2018 19:00:00 17,0 0,6 0 0 N 20
22.04.2018 18:00:00 18,8 0,4 5 3 W 20
22.04.2018 17:00:00 19,6 -0,4 18 10 WNW 20
22.04.2018 16:00:00 20,4 0,8 8 4 SW 20
22.04.2018 15:00:00 20,4 0,8 9 5 NNW 20
22.04.2018 14:00:00 20,0 1,4 8 4 NNW 20
22.04.2018 13:00:00 18,6 3,6 5 3 N 20
22.04.2018 12:00:00 15,0 8,0 9 5 N 20
22.04.2018 11:00:00 11,2 6,7 9 5 N 20
22.04.2018 10:00:00 9,2 7,5 9 5 N 20
22.04.2018 09:00:00 5,6 4,6 8 4 N 30
22.04.2018 08:00:00 4,6 3,4 9 5 N 30
22.04.2018 07:00:00 4,6 3,1 8 4 N 20
22.04.2018 06:00:00 5,0 3,3 8 4 NNE 12
22.04.2018 05:00:00 5,4 2,6 9 5 NNE 10
22.04.2018 04:00:00 6,0 2,8 9 5 NNE 12
22.04.2018 03:00:00 - - - - - -
22.04.2018 02:00:00 7,4 2,7 9 5 NNE 12
22.04.2018 01:00:00 8,0 2,5 9 5 NNE 12
22.04.2018 00:00:00 8,6 2,6 8 4 NNE 12
21.04.2018 23:00:00 9,6 1,0 8 4 NNE 15
21.04.2018 22:00:00 10,0 0,6 9 5 NNE 20
21.04.2018 21:00:00 12,4 0,8 0 0 N 20
21.04.2018 20:00:00 14,6 -1,5 5 3 NNE 20
21.04.2018 19:00:00 17,6 -4,3 4 2 N 30
21.04.2018 18:00:00 19,0 -0,9 9 5 WNW 30
21.04.2018 17:00:00 20,2 -4,9 11 6 WNW 30
21.04.2018 16:00:00 20,8 -4,4 9 5 N 30
21.04.2018 15:00:00 20,8 -2,3 9 5 N 30
21.04.2018 14:00:00 20,4 -2,0 9 5 N 30
21.04.2018 13:00:00 19,6 0,6 9 5 N 30
21.04.2018 12:00:00 16,4 2,8 9 5 N 20
21.04.2018 11:00:00 10,4 3,0 9 5 N 30
21.04.2018 10:00:00 9,0 4,2 9 5 N 20
21.04.2018 09:00:00 5,2 3,7 8 4 NNE 20
21.04.2018 08:00:00 4,2 2,4 9 5 NNE 20
21.04.2018 07:00:00 4,2 2,1 8 4 NNE 20
21.04.2018 06:00:00 5,0 2,2 9 5 NNE 14
21.04.2018 05:00:00 5,4 2,0 8 4 NNE 12
21.04.2018 04:00:00 5,8 1,9 8 4 NNE 12
21.04.2018 03:00:00 6,4 2,3 9 5 NNE 12
21.04.2018 02:00:00 6,8 2,3 8 4 N 12
21.04.2018 01:00:00 7,0 1,7 9 5 NNE 12
21.04.2018 00:00:00 7,6 1,9 9 5 NNE 12
20.04.2018 23:00:00 8,6 1,5 8 4 N 12
20.04.2018 22:00:00 9,6 1,2 8 4 NNE 12
20.04.2018 21:00:00 10,8 0,5 8 4 NNE 12
20.04.2018 20:00:00 12,8 -1,2 5 3 NNE 20
20.04.2018 19:00:00 16,4 -0,8 0 0 N 20
20.04.2018 18:00:00 17,4 -1,8 5 3 WSW 20
20.04.2018 17:00:00 17,8 -3,6 8 4 WSW 20
20.04.2018 16:00:00 17,8 -3,0 11 6 S 20
20.04.2018 15:00:00 17,8 -1,4 13 7 S 20
20.04.2018 14:00:00 17,2 -1,0 15 8 S 20
20.04.2018 13:00:00 16,4 0,5 13 7 S 20
20.04.2018 12:00:00 15,2 2,0 13 7 SSW 20
20.04.2018 11:00:00 11,4 2,4 9 5 SSW 20
20.04.2018 10:00:00 8,8 4,4 5 3 NNE 20
20.04.2018 09:00:00 4,4 4,2 8 4 NNE 20
20.04.2018 08:00:00 3,2 2,2 5 3 NNE 20
20.04.2018 07:00:00 3,4 1,9 9 5 NNE 20
20.04.2018 06:00:00 3,8 2,0 5 3 NNE 15
20.04.2018 05:00:00 3,8 2,3 9 5 NNE 12
20.04.2018 04:00:00 4,0 2,2 11 6 NNE 12
20.04.2018 03:00:00 5,0 2,4 9 5 NNE 15
20.04.2018 02:00:00 5,2 2,2 9 5 NNE 15
20.04.2018 01:00:00 6,0 2,3 8 4 NNE 15
20.04.2018 00:00:00 7,0 2,3 5 3 NNE 15
19.04.2018 23:00:00 7,8 2,1 8 4 NNE 20
19.04.2018 22:00:00 8,4 1,8 5 3 NNE 20
19.04.2018 21:00:00 10,0 1,4 9 5 NNE 20
19.04.2018 20:00:00 11,8 1,2 0 0 N 30
19.04.2018 19:00:00 14,0 -0,8 5 3 NNE 30
19.04.2018 18:00:00 16,4 -2,1 5 3 SSW 30
19.04.2018 17:00:00 18,0 -2,3 5 3 SSW 30
19.04.2018 16:00:00 18,6 -4,1 5 3 SSW 30
19.04.2018 15:00:00 19,4 -4,8 8 4 WSW 30
19.04.2018 14:00:00 19,4 -4,1 5 3 SW 30
19.04.2018 13:00:00 18,2 -4,5 5 3 WSW 30
19.04.2018 12:00:00 14,2 -1,0 9 5 N 30
19.04.2018 11:00:00 11,4 0,5 9 5 N 30
19.04.2018 10:00:00 8,4 2,2 8 4 N 30
19.04.2018 09:00:00 5,2 2,6 11 6 NNE 20
19.04.2018 08:00:00 2,8 1,2 9 5 NNE 15
19.04.2018 07:00:00 2,8 1,3 11 6 NNE 20
19.04.2018 06:00:00 3,0 1,5 11 6 NNE 12
19.04.2018 05:00:00 3,4 1,8 15 8 NNE 10
19.04.2018 04:00:00 4,0 2,0 13 7 NNE 10
19.04.2018 03:00:00 4,4 1,6 13 7 NNE 10
19.04.2018 02:00:00 4,6 0,9 13 7 NNE 12
19.04.2018 01:00:00 5,4 0,8 8 4 NNE 12
19.04.2018 00:00:00 5,8 0,2 8 4 NNE 15
18.04.2018 23:00:00 7,4 0,1 11 6 N 15
18.04.2018 22:00:00 7,8 -0,9 8 4 NNE 15
18.04.2018 21:00:00 9,0 -1,1 9 5 NNE 15
18.04.2018 20:00:00 12,0 -1,5 8 4 N 15
18.04.2018 19:00:00 13,6 -3,6 8 4 N 15
18.04.2018 18:00:00 16,4 -5,4 15 8 NNE 20
18.04.2018 17:00:00 17,4 -7,2 13 7 N 20
18.04.2018 16:00:00 18,0 -7,4 11 6 NNE 20
18.04.2018 15:00:00 17,6 -7,7 13 7 N 20
18.04.2018 14:00:00 17,0 -6,1 15 8 N 20
18.04.2018 13:00:00 15,6 -2,8 11 6 N 20
18.04.2018 12:00:00 12,4 0,8 15 8 NNE 20
18.04.2018 11:00:00 9,6 3,4 13 7 NNE 20
18.04.2018 10:00:00 8,0 3,3 11 6 NNE 20
18.04.2018 09:00:00 4,0 2,5 13 7 NNW 15
18.04.2018 08:00:00 3,0 1,5 9 5 NNE 20
18.04.2018 07:00:00 3,4 1,4 9 5 NNE 20
18.04.2018 06:00:00 3,4 1,6 11 6 NNE 15

tt = temperature
td = dewpoint
ff = wind speed
dd = wind direction
vv = visibility

Next stations